sensor_id;sensor_type;location;lat;lon;timestamp;P1;durP1;ratioP1;P2;durP2;ratioP2
17235;SDS011;8734;59.272;17.780;2023-09-18T00:01:31;4.07;;;1.40;;
17235;SDS011;8734;59.272;17.780;2023-09-18T00:04:01;9.53;;;1.60;;
17235;SDS011;8734;59.272;17.780;2023-09-18T00:06:29;3.40;;;1.23;;
17235;SDS011;8734;59.272;17.780;2023-09-18T00:08:58;3.23;;;1.30;;
17235;SDS011;8734;59.272;17.780;2023-09-18T00:11:26;3.67;;;1.30;;
17235;SDS011;8734;59.272;17.780;2023-09-18T00:13:56;4.23;;;1.43;;
17235;SDS011;8734;59.272;17.780;2023-09-18T00:16:24;6.43;;;1.50;;
17235;SDS011;8734;59.272;17.780;2023-09-18T00:18:53;7.60;;;1.30;;
17235;SDS011;8734;59.272;17.780;2023-09-18T00:21:22;1.20;;;1.10;;
17235;SDS011;8734;59.272;17.780;2023-09-18T00:23:51;2.53;;;1.20;;
17235;SDS011;8734;59.272;17.780;2023-09-18T00:26:20;2.47;;;1.30;;
17235;SDS011;8734;59.272;17.780;2023-09-18T00:28:48;2.03;;;1.20;;
17235;SDS011;8734;59.272;17.780;2023-09-18T00:31:18;1.93;;;1.10;;
17235;SDS011;8734;59.272;17.780;2023-09-18T00:33:47;4.00;;;1.30;;
17235;SDS011;8734;59.272;17.780;2023-09-18T00:36:15;1.37;;;1.07;;
17235;SDS011;8734;59.272;17.780;2023-09-18T00:38:43;5.60;;;1.43;;
17235;SDS011;8734;59.272;17.780;2023-09-18T00:41:12;4.67;;;1.43;;
17235;SDS011;8734;59.272;17.780;2023-09-18T00:43:41;2.77;;;1.40;;
17235;SDS011;8734;59.272;17.780;2023-09-18T00:46:09;3.87;;;1.03;;
17235;SDS011;8734;59.272;17.780;2023-09-18T00:48:38;2.77;;;1.17;;
17235;SDS011;8734;59.272;17.780;2023-09-18T00:51:07;3.10;;;1.23;;
17235;SDS011;8734;59.272;17.780;2023-09-18T00:53:36;3.03;;;1.13;;
17235;SDS011;8734;59.272;17.780;2023-09-18T00:56:05;2.33;;;1.03;;
17235;SDS011;8734;59.272;17.780;2023-09-18T00:58:34;5.70;;;1.17;;
17235;SDS011;8734;59.272;17.780;2023-09-18T01:01:02;6.83;;;1.27;;
17235;SDS011;8734;59.272;17.780;2023-09-18T01:03:31;3.37;;;1.37;;
17235;SDS011;8734;59.272;17.780;2023-09-18T01:06:01;4.20;;;1.30;;
17235;SDS011;8734;59.272;17.780;2023-09-18T01:08:30;2.57;;;1.30;;
17235;SDS011;8734;59.272;17.780;2023-09-18T01:11:00;6.60;;;1.40;;
17235;SDS011;8734;59.272;17.780;2023-09-18T01:13:33;2.00;;;1.13;;
17235;SDS011;8734;59.272;17.780;2023-09-18T01:16:07;9.90;;;1.20;;
17235;SDS011;8734;59.272;17.780;2023-09-18T01:18:42;6.63;;;1.30;;
17235;SDS011;8734;59.272;17.780;2023-09-18T01:21:19;3.23;;;1.30;;
17235;SDS011;8734;59.272;17.780;2023-09-18T01:23:49;3.50;;;1.27;;
17235;SDS011;8734;59.272;17.780;2023-09-18T01:26:18;2.43;;;1.20;;
17235;SDS011;8734;59.272;17.780;2023-09-18T01:28:47;4.83;;;1.00;;
17235;SDS011;8734;59.272;17.780;2023-09-18T01:31:15;1.77;;;0.83;;
17235;SDS011;8734;59.272;17.780;2023-09-18T01:33:44;2.87;;;1.07;;
17235;SDS011;8734;59.272;17.780;2023-09-18T01:36:14;4.00;;;1.30;;
17235;SDS011;8734;59.272;17.780;2023-09-18T01:38:45;2.40;;;1.03;;
17235;SDS011;8734;59.272;17.780;2023-09-18T01:41:15;3.33;;;1.00;;
17235;SDS011;8734;59.272;17.780;2023-09-18T01:43:44;3.10;;;1.30;;
17235;SDS011;8734;59.272;17.780;2023-09-18T01:46:12;1.40;;;1.10;;
17235;SDS011;8734;59.272;17.780;2023-09-18T01:48:45;2.73;;;1.07;;
17235;SDS011;8734;59.272;17.780;2023-09-18T01:51:14;4.50;;;1.10;;
17235;SDS011;8734;59.272;17.780;2023-09-18T01:53:42;1.70;;;1.07;;
17235;SDS011;8734;59.272;17.780;2023-09-18T01:56:11;2.23;;;1.20;;
17235;SDS011;8734;59.272;17.780;2023-09-18T01:58:40;3.30;;;1.30;;
17235;SDS011;8734;59.272;17.780;2023-09-18T02:01:09;2.90;;;1.30;;
17235;SDS011;8734;59.272;17.780;2023-09-18T02:03:38;1.67;;;1.07;;
17235;SDS011;8734;59.272;17.780;2023-09-18T02:06:28;4.33;;;1.17;;
17235;SDS011;8734;59.272;17.780;2023-09-18T02:08:57;3.23;;;1.10;;
17235;SDS011;8734;59.272;17.780;2023-09-18T02:11:27;3.07;;;1.30;;
17235;SDS011;8734;59.272;17.780;2023-09-18T02:13:56;1.73;;;1.20;;
17235;SDS011;8734;59.272;17.780;2023-09-18T02:16:25;4.53;;;1.00;;
17235;SDS011;8734;59.272;17.780;2023-09-18T02:18:54;1.40;;;1.03;;
17235;SDS011;8734;59.272;17.780;2023-09-18T02:21:23;7.23;;;1.23;;
17235;SDS011;8734;59.272;17.780;2023-09-18T02:23:52;1.67;;;1.13;;
17235;SDS011;8734;59.272;17.780;2023-09-18T02:26:21;3.13;;;1.20;;
17235;SDS011;8734;59.272;17.780;2023-09-18T02:28:51;2.43;;;1.10;;
17235;SDS011;8734;59.272;17.780;2023-09-18T02:31:22;6.23;;;1.30;;
17235;SDS011;8734;59.272;17.780;2023-09-18T02:33:50;1.90;;;1.23;;
17235;SDS011;8734;59.272;17.780;2023-09-18T02:36:18;2.40;;;1.43;;
17235;SDS011;8734;59.272;17.780;2023-09-18T02:38:47;1.37;;;1.10;;
17235;SDS011;8734;59.272;17.780;2023-09-18T02:41:15;3.43;;;1.17;;
17235;SDS011;8734;59.272;17.780;2023-09-18T02:43:43;8.63;;;1.10;;
17235;SDS011;8734;59.272;17.780;2023-09-18T02:46:12;2.17;;;1.20;;
17235;SDS011;8734;59.272;17.780;2023-09-18T02:48:41;7.73;;;1.30;;
17235;SDS011;8734;59.272;17.780;2023-09-18T02:51:09;3.13;;;1.30;;
17235;SDS011;8734;59.272;17.780;2023-09-18T02:53:37;4.53;;;1.20;;
17235;SDS011;8734;59.272;17.780;2023-09-18T02:56:06;5.93;;;1.10;;
17235;SDS011;8734;59.272;17.780;2023-09-18T02:58:34;1.83;;;1.00;;
17235;SDS011;8734;59.272;17.780;2023-09-18T03:01:02;1.57;;;1.00;;
17235;SDS011;8734;59.272;17.780;2023-09-18T03:03:31;1.37;;;0.80;;
17235;SDS011;8734;59.272;17.780;2023-09-18T03:06:02;1.97;;;1.10;;
17235;SDS011;8734;59.272;17.780;2023-09-18T03:08:31;1.37;;;1.00;;
17235;SDS011;8734;59.272;17.780;2023-09-18T03:11:01;3.80;;;1.00;;
17235;SDS011;8734;59.272;17.780;2023-09-18T03:13:30;2.60;;;1.03;;
17235;SDS011;8734;59.272;17.780;2023-09-18T03:15:59;1.60;;;1.23;;
17235;SDS011;8734;59.272;17.780;2023-09-18T03:18:27;2.43;;;1.00;;
17235;SDS011;8734;59.272;17.780;2023-09-18T03:20:55;2.77;;;1.30;;
17235;SDS011;8734;59.272;17.780;2023-09-18T03:23:25;6.27;;;1.20;;
17235;SDS011;8734;59.272;17.780;2023-09-18T03:25:53;6.13;;;1.30;;
17235;SDS011;8734;59.272;17.780;2023-09-18T03:28:21;5.87;;;1.27;;
17235;SDS011;8734;59.272;17.780;2023-09-18T03:30:49;3.03;;;1.13;;
17235;SDS011;8734;59.272;17.780;2023-09-18T03:33:18;1.20;;;0.90;;
17235;SDS011;8734;59.272;17.780;2023-09-18T03:35:46;7.30;;;1.00;;
17235;SDS011;8734;59.272;17.780;2023-09-18T03:38:16;11.43;;;2.83;;
17235;SDS011;8734;59.272;17.780;2023-09-18T03:40:46;6.50;;;1.10;;
17235;SDS011;8734;59.272;17.780;2023-09-18T03:43:14;7.13;;;1.50;;
17235;SDS011;8734;59.272;17.780;2023-09-18T03:45:42;5.87;;;1.13;;
17235;SDS011;8734;59.272;17.780;2023-09-18T03:48:11;3.60;;;1.00;;
17235;SDS011;8734;59.272;17.780;2023-09-18T03:50:39;3.93;;;0.97;;
17235;SDS011;8734;59.272;17.780;2023-09-18T03:53:10;2.67;;;1.07;;
17235;SDS011;8734;59.272;17.780;2023-09-18T03:55:38;8.07;;;1.30;;
17235;SDS011;8734;59.272;17.780;2023-09-18T03:58:07;3.70;;;1.17;;
17235;SDS011;8734;59.272;17.780;2023-09-18T04:00:36;3.03;;;0.90;;
17235;SDS011;8734;59.272;17.780;2023-09-18T04:03:04;2.70;;;0.87;;
17235;SDS011;8734;59.272;17.780;2023-09-18T04:05:33;4.83;;;1.07;;
17235;SDS011;8734;59.272;17.780;2023-09-18T04:08:01;3.77;;;1.00;;
17235;SDS011;8734;59.272;17.780;2023-09-18T04:10:29;1.73;;;0.90;;
17235;SDS011;8734;59.272;17.780;2023-09-18T04:12:59;2.80;;;1.20;;
17235;SDS011;8734;59.272;17.780;2023-09-18T04:15:29;2.20;;;0.97;;
17235;SDS011;8734;59.272;17.780;2023-09-18T04:17:57;4.00;;;1.10;;
17235;SDS011;8734;59.272;17.780;2023-09-18T04:20:26;1.17;;;1.03;;
17235;SDS011;8734;59.272;17.780;2023-09-18T04:25:50;2.83;;;1.40;;
17235;SDS011;8734;59.272;17.780;2023-09-18T04:28:20;3.50;;;1.00;;
17235;SDS011;8734;59.272;17.780;2023-09-18T04:30:51;4.20;;;1.03;;
17235;SDS011;8734;59.272;17.780;2023-09-18T04:33:19;2.80;;;1.00;;
17235;SDS011;8734;59.272;17.780;2023-09-18T04:35:48;5.10;;;1.10;;
17235;SDS011;8734;59.272;17.780;2023-09-18T04:38:17;4.20;;;1.10;;
17235;SDS011;8734;59.272;17.780;2023-09-18T04:40:46;5.90;;;1.00;;
17235;SDS011;8734;59.272;17.780;2023-09-18T04:43:14;1.37;;;1.00;;
17235;SDS011;8734;59.272;17.780;2023-09-18T04:45:43;5.10;;;1.20;;
17235;SDS011;8734;59.272;17.780;2023-09-18T04:48:13;3.80;;;1.10;;
17235;SDS011;8734;59.272;17.780;2023-09-18T04:50:42;2.23;;;0.93;;
17235;SDS011;8734;59.272;17.780;2023-09-18T04:53:10;7.97;;;1.53;;
17235;SDS011;8734;59.272;17.780;2023-09-18T04:55:38;2.43;;;1.30;;
17235;SDS011;8734;59.272;17.780;2023-09-18T04:58:06;8.70;;;1.57;;
17235;SDS011;8734;59.272;17.780;2023-09-18T05:00:35;3.30;;;1.30;;
17235;SDS011;8734;59.272;17.780;2023-09-18T05:03:03;4.70;;;1.40;;
17235;SDS011;8734;59.272;17.780;2023-09-18T05:05:34;7.93;;;2.20;;
17235;SDS011;8734;59.272;17.780;2023-09-18T05:08:04;14.27;;;2.00;;
17235;SDS011;8734;59.272;17.780;2023-09-18T05:10:34;19.73;;;2.43;;
17235;SDS011;8734;59.272;17.780;2023-09-18T05:13:03;7.80;;;1.70;;
17235;SDS011;8734;59.272;17.780;2023-09-18T05:15:31;12.33;;;1.57;;
17235;SDS011;8734;59.272;17.780;2023-09-18T05:18:00;4.23;;;1.37;;
17235;SDS011;8734;59.272;17.780;2023-09-18T05:20:30;4.30;;;1.53;;
17235;SDS011;8734;59.272;17.780;2023-09-18T05:23:00;10.80;;;1.73;;
17235;SDS011;8734;59.272;17.780;2023-09-18T05:25:29;8.07;;;1.60;;
17235;SDS011;8734;59.272;17.780;2023-09-18T05:27:59;6.50;;;1.20;;
17235;SDS011;8734;59.272;17.780;2023-09-18T05:30:29;1.53;;;1.03;;
17235;SDS011;8734;59.272;17.780;2023-09-18T05:33:01;4.93;;;1.50;;
17235;SDS011;8734;59.272;17.780;2023-09-18T05:35:32;1.80;;;1.20;;
17235;SDS011;8734;59.272;17.780;2023-09-18T05:38:02;4.17;;;1.37;;
17235;SDS011;8734;59.272;17.780;2023-09-18T05:40:31;9.07;;;1.20;;
17235;SDS011;8734;59.272;17.780;2023-09-18T05:43:00;6.47;;;1.50;;
17235;SDS011;8734;59.272;17.780;2023-09-18T05:45:28;2.93;;;1.27;;
17235;SDS011;8734;59.272;17.780;2023-09-18T05:47:58;5.27;;;1.50;;
17235;SDS011;8734;59.272;17.780;2023-09-18T05:50:31;6.67;;;1.10;;
17235;SDS011;8734;59.272;17.780;2023-09-18T05:53:03;14.00;;;1.70;;
17235;SDS011;8734;59.272;17.780;2023-09-18T05:55:31;3.27;;;1.30;;
17235;SDS011;8734;59.272;17.780;2023-09-18T05:58:00;2.07;;;1.30;;
17235;SDS011;8734;59.272;17.780;2023-09-18T06:00:30;4.27;;;1.20;;
17235;SDS011;8734;59.272;17.780;2023-09-18T06:02:59;5.63;;;1.13;;
17235;SDS011;8734;59.272;17.780;2023-09-18T06:05:27;2.80;;;1.10;;
17235;SDS011;8734;59.272;17.780;2023-09-18T06:07:58;8.03;;;1.80;;
17235;SDS011;8734;59.272;17.780;2023-09-18T06:10:28;5.47;;;1.30;;
17235;SDS011;8734;59.272;17.780;2023-09-18T06:12:56;4.60;;;1.43;;
17235;SDS011;8734;59.272;17.780;2023-09-18T06:15:31;10.23;;;1.60;;
17235;SDS011;8734;59.272;17.780;2023-09-18T06:17:59;5.47;;;1.67;;
17235;SDS011;8734;59.272;17.780;2023-09-18T06:20:28;6.93;;;1.33;;
17235;SDS011;8734;59.272;17.780;2023-09-18T06:22:56;11.27;;;1.37;;
17235;SDS011;8734;59.272;17.780;2023-09-18T06:25:24;5.80;;;1.30;;
17235;SDS011;8734;59.272;17.780;2023-09-18T06:27:54;8.23;;;1.57;;
17235;SDS011;8734;59.272;17.780;2023-09-18T06:30:22;5.37;;;1.33;;
17235;SDS011;8734;59.272;17.780;2023-09-18T06:32:50;11.43;;;1.70;;
17235;SDS011;8734;59.272;17.780;2023-09-18T06:35:19;7.80;;;1.23;;
17235;SDS011;8734;59.272;17.780;2023-09-18T06:37:48;3.87;;;1.00;;
17235;SDS011;8734;59.272;17.780;2023-09-18T06:40:16;6.27;;;1.30;;
17235;SDS011;8734;59.272;17.780;2023-09-18T06:42:44;2.87;;;1.33;;
17235;SDS011;8734;59.272;17.780;2023-09-18T06:45:14;3.60;;;1.30;;
17235;SDS011;8734;59.272;17.780;2023-09-18T06:47:42;4.80;;;1.00;;
17235;SDS011;8734;59.272;17.780;2023-09-18T06:50:10;6.00;;;1.03;;
17235;SDS011;8734;59.272;17.780;2023-09-18T06:52:39;3.83;;;1.00;;
17235;SDS011;8734;59.272;17.780;2023-09-18T06:55:08;6.57;;;1.13;;
17235;SDS011;8734;59.272;17.780;2023-09-18T06:57:37;1.13;;;0.70;;
17235;SDS011;8734;59.272;17.780;2023-09-18T07:00:06;7.57;;;0.90;;
17235;SDS011;8734;59.272;17.780;2023-09-18T07:02:36;1.73;;;0.80;;
17235;SDS011;8734;59.272;17.780;2023-09-18T07:05:04;0.77;;;0.70;;
17235;SDS011;8734;59.272;17.780;2023-09-18T07:07:33;3.40;;;0.90;;
17235;SDS011;8734;59.272;17.780;2023-09-18T07:10:01;3.43;;;0.90;;
17235;SDS011;8734;59.272;17.780;2023-09-18T07:12:31;6.67;;;0.80;;
17235;SDS011;8734;59.272;17.780;2023-09-18T07:15:00;2.63;;;0.73;;
17235;SDS011;8734;59.272;17.780;2023-09-18T07:17:31;2.40;;;1.27;;
17235;SDS011;8734;59.272;17.780;2023-09-18T07:20:01;4.43;;;1.00;;
17235;SDS011;8734;59.272;17.780;2023-09-18T07:22:36;5.43;;;1.00;;
17235;SDS011;8734;59.272;17.780;2023-09-18T07:25:05;2.00;;;0.80;;
17235;SDS011;8734;59.272;17.780;2023-09-18T07:27:35;3.30;;;0.90;;
17235;SDS011;8734;59.272;17.780;2023-09-18T07:30:05;7.10;;;0.63;;
17235;SDS011;8734;59.272;17.780;2023-09-18T07:32:36;3.03;;;0.60;;
17235;SDS011;8734;59.272;17.780;2023-09-18T07:35:08;1.90;;;0.87;;
17235;SDS011;8734;59.272;17.780;2023-09-18T07:37:37;3.07;;;0.90;;
17235;SDS011;8734;59.272;17.780;2023-09-18T07:40:06;8.73;;;0.80;;
17235;SDS011;8734;59.272;17.780;2023-09-18T07:42:34;2.20;;;0.70;;
17235;SDS011;8734;59.272;17.780;2023-09-18T07:45:03;4.60;;;0.60;;
17235;SDS011;8734;59.272;17.780;2023-09-18T07:47:32;1.67;;;0.60;;
17235;SDS011;8734;59.272;17.780;2023-09-18T07:50:00;3.20;;;0.73;;
17235;SDS011;8734;59.272;17.780;2023-09-18T07:52:30;8.00;;;0.77;;
17235;SDS011;8734;59.272;17.780;2023-09-18T07:54:58;10.00;;;2.00;;
17235;SDS011;8734;59.272;17.780;2023-09-18T07:57:27;4.03;;;0.97;;
17235;SDS011;8734;59.272;17.780;2023-09-18T07:59:56;5.90;;;0.63;;
17235;SDS011;8734;59.272;17.780;2023-09-18T08:02:25;1.50;;;0.60;;
17235;SDS011;8734;59.272;17.780;2023-09-18T08:04:55;3.20;;;0.90;;
17235;SDS011;8734;59.272;17.780;2023-09-18T08:07:23;11.70;;;1.00;;
17235;SDS011;8734;59.272;17.780;2023-09-18T08:09:53;3.27;;;0.87;;
17235;SDS011;8734;59.272;17.780;2023-09-18T08:12:22;3.13;;;1.00;;
17235;SDS011;8734;59.272;17.780;2023-09-18T08:14:50;1.03;;;0.50;;
17235;SDS011;8734;59.272;17.780;2023-09-18T08:17:19;1.67;;;0.80;;
17235;SDS011;8734;59.272;17.780;2023-09-18T08:19:49;1.13;;;0.43;;
17235;SDS011;8734;59.272;17.780;2023-09-18T08:22:18;3.10;;;0.70;;
17235;SDS011;8734;59.272;17.780;2023-09-18T08:24:47;5.00;;;0.80;;
17235;SDS011;8734;59.272;17.780;2023-09-18T08:27:20;1.63;;;0.53;;
17235;SDS011;8734;59.272;17.780;2023-09-18T08:29:48;3.33;;;0.80;;
17235;SDS011;8734;59.272;17.780;2023-09-18T08:32:16;2.47;;;0.90;;
17235;SDS011;8734;59.272;17.780;2023-09-18T08:34:47;5.67;;;1.17;;
17235;SDS011;8734;59.272;17.780;2023-09-18T08:37:15;1.13;;;0.60;;
17235;SDS011;8734;59.272;17.780;2023-09-18T08:39:44;4.27;;;0.70;;
17235;SDS011;8734;59.272;17.780;2023-09-18T08:42:12;6.60;;;0.73;;
17235;SDS011;8734;59.272;17.780;2023-09-18T08:44:43;2.73;;;0.50;;
17235;SDS011;8734;59.272;17.780;2023-09-18T08:47:16;2.47;;;0.60;;
17235;SDS011;8734;59.272;17.780;2023-09-18T08:49:47;3.37;;;0.60;;
17235;SDS011;8734;59.272;17.780;2023-09-18T08:52:17;2.70;;;0.83;;
17235;SDS011;8734;59.272;17.780;2023-09-18T08:54:45;2.20;;;0.47;;
17235;SDS011;8734;59.272;17.780;2023-09-18T08:57:14;2.90;;;0.70;;
17235;SDS011;8734;59.272;17.780;2023-09-18T08:59:43;1.07;;;0.50;;
17235;SDS011;8734;59.272;17.780;2023-09-18T09:02:12;2.43;;;0.60;;
17235;SDS011;8734;59.272;17.780;2023-09-18T09:04:41;1.87;;;0.70;;
17235;SDS011;8734;59.272;17.780;2023-09-18T09:07:09;3.33;;;0.53;;
17235;SDS011;8734;59.272;17.780;2023-09-18T09:09:37;4.30;;;0.50;;
17235;SDS011;8734;59.272;17.780;2023-09-18T09:12:06;1.40;;;0.60;;
17235;SDS011;8734;59.272;17.780;2023-09-18T09:14:35;6.03;;;0.60;;
17235;SDS011;8734;59.272;17.780;2023-09-18T09:17:05;2.07;;;0.80;;
17235;SDS011;8734;59.272;17.780;2023-09-18T09:19:34;3.47;;;0.80;;
17235;SDS011;8734;59.272;17.780;2023-09-18T09:22:05;5.40;;;0.70;;
17235;SDS011;8734;59.272;17.780;2023-09-18T09:24:36;6.10;;;0.43;;
17235;SDS011;8734;59.272;17.780;2023-09-18T09:27:05;1.27;;;0.60;;
17235;SDS011;8734;59.272;17.780;2023-09-18T09:29:34;1.03;;;0.50;;
17235;SDS011;8734;59.272;17.780;2023-09-18T09:32:13;6.67;;;0.67;;
17235;SDS011;8734;59.272;17.780;2023-09-18T09:34:42;4.27;;;0.90;;
17235;SDS011;8734;59.272;17.780;2023-09-18T09:37:12;9.27;;;1.00;;
17235;SDS011;8734;59.272;17.780;2023-09-18T09:39:47;2.03;;;0.70;;
17235;SDS011;8734;59.272;17.780;2023-09-18T09:42:17;5.77;;;0.40;;
17235;SDS011;8734;59.272;17.780;2023-09-18T09:45:00;1.20;;;0.60;;
17235;SDS011;8734;59.272;17.780;2023-09-18T09:47:33;3.40;;;0.70;;
17235;SDS011;8734;59.272;17.780;2023-09-18T09:50:05;2.13;;;0.77;;
17235;SDS011;8734;59.272;17.780;2023-09-18T09:52:36;1.70;;;0.70;;
17235;SDS011;8734;59.272;17.780;2023-09-18T09:55:24;2.63;;;0.82;;
17235;SDS011;8734;59.272;17.780;2023-09-18T09:57:55;2.35;;;0.65;;
17235;SDS011;8734;59.272;17.780;2023-09-18T10:00:28;1.10;;;0.40;;
17235;SDS011;8734;59.272;17.780;2023-09-18T10:03:04;5.95;;;0.80;;
17235;SDS011;8734;59.272;17.780;2023-09-18T10:05:36;3.07;;;0.77;;
17235;SDS011;8734;59.272;17.780;2023-09-18T10:08:06;3.50;;;0.80;;
17235;SDS011;8734;59.272;17.780;2023-09-18T10:10:36;5.07;;;0.90;;
17235;SDS011;8734;59.272;17.780;2023-09-18T10:13:09;3.13;;;0.80;;
17235;SDS011;8734;59.272;17.780;2023-09-18T10:15:39;3.47;;;0.60;;
17235;SDS011;8734;59.272;17.780;2023-09-18T10:21:06;4.80;;;0.70;;
17235;SDS011;8734;59.272;17.780;2023-09-18T10:23:46;1.17;;;0.47;;
17235;SDS011;8734;59.272;17.780;2023-09-18T10:26:25;2.87;;;0.57;;
17235;SDS011;8734;59.272;17.780;2023-09-18T10:28:56;2.67;;;0.70;;
17235;SDS011;8734;59.272;17.780;2023-09-18T10:31:27;3.30;;;1.30;;
17235;SDS011;8734;59.272;17.780;2023-09-18T10:33:58;9.93;;;0.93;;
17235;SDS011;8734;59.272;17.780;2023-09-18T10:36:27;1.10;;;0.47;;
17235;SDS011;8734;59.272;17.780;2023-09-18T10:38:59;6.07;;;0.80;;
17235;SDS011;8734;59.272;17.780;2023-09-18T10:41:34;0.70;;;0.60;;
17235;SDS011;8734;59.272;17.780;2023-09-18T10:44:04;2.65;;;0.77;;
17235;SDS011;8734;59.272;17.780;2023-09-18T10:46:33;3.97;;;0.75;;
17235;SDS011;8734;59.272;17.780;2023-09-18T10:49:03;5.10;;;0.87;;
17235;SDS011;8734;59.272;17.780;2023-09-18T10:51:32;1.67;;;0.87;;
17235;SDS011;8734;59.272;17.780;2023-09-18T10:54:01;1.57;;;0.50;;
17235;SDS011;8734;59.272;17.780;2023-09-18T10:56:30;5.00;;;0.63;;
17235;SDS011;8734;59.272;17.780;2023-09-18T10:58:59;6.30;;;0.80;;
17235;SDS011;8734;59.272;17.780;2023-09-18T11:01:29;2.53;;;0.53;;
17235;SDS011;8734;59.272;17.780;2023-09-18T11:03:59;10.50;;;0.87;;
17235;SDS011;8734;59.272;17.780;2023-09-18T11:06:30;2.07;;;0.60;;
17235;SDS011;8734;59.272;17.780;2023-09-18T11:09:41;1.13;;;0.60;;
17235;SDS011;8734;59.272;17.780;2023-09-18T11:12:11;2.77;;;0.73;;
17235;SDS011;8734;59.272;17.780;2023-09-18T11:14:42;3.20;;;0.47;;
17235;SDS011;8734;59.272;17.780;2023-09-18T11:17:28;8.37;;;0.70;;
17235;SDS011;8734;59.272;17.780;2023-09-18T11:20:04;5.60;;;0.80;;
17235;SDS011;8734;59.272;17.780;2023-09-18T11:22:39;4.93;;;0.73;;
17235;SDS011;8734;59.272;17.780;2023-09-18T11:25:29;3.33;;;0.60;;
17235;SDS011;8734;59.272;17.780;2023-09-18T11:28:01;3.27;;;0.47;;
17235;SDS011;8734;59.272;17.780;2023-09-18T11:30:33;1.60;;;0.47;;
17235;SDS011;8734;59.272;17.780;2023-09-18T11:33:03;4.30;;;0.73;;
17235;SDS011;8734;59.272;17.780;2023-09-18T11:35:32;1.33;;;0.50;;
17235;SDS011;8734;59.272;17.780;2023-09-18T11:38:06;3.30;;;0.70;;
17235;SDS011;8734;59.272;17.780;2023-09-18T11:40:36;3.43;;;0.43;;
17235;SDS011;8734;59.272;17.780;2023-09-18T11:43:24;2.77;;;0.60;;
17235;SDS011;8734;59.272;17.780;2023-09-18T11:45:56;2.77;;;0.50;;
17235;SDS011;8734;59.272;17.780;2023-09-18T11:48:26;8.73;;;0.93;;
17235;SDS011;8734;59.272;17.780;2023-09-18T11:50:56;4.47;;;0.70;;
17235;SDS011;8734;59.272;17.780;2023-09-18T11:53:27;2.73;;;0.50;;
17235;SDS011;8734;59.272;17.780;2023-09-18T11:55:56;4.40;;;0.80;;
17235;SDS011;8734;59.272;17.780;2023-09-18T11:58:25;1.93;;;0.43;;
17235;SDS011;8734;59.272;17.780;2023-09-18T12:00:53;3.33;;;0.50;;
17235;SDS011;8734;59.272;17.780;2023-09-18T12:03:22;3.63;;;0.57;;
17235;SDS011;8734;59.272;17.780;2023-09-18T12:05:55;0.70;;;0.50;;
17235;SDS011;8734;59.272;17.780;2023-09-18T12:08:27;5.93;;;0.80;;
17235;SDS011;8734;59.272;17.780;2023-09-18T12:10:57;5.33;;;0.87;;
17235;SDS011;8734;59.272;17.780;2023-09-18T12:13:26;3.20;;;0.80;;
17235;SDS011;8734;59.272;17.780;2023-09-18T12:15:58;3.10;;;1.20;;
17235;SDS011;8734;59.272;17.780;2023-09-18T12:18:28;8.77;;;0.90;;
17235;SDS011;8734;59.272;17.780;2023-09-18T12:20:57;4.00;;;0.70;;
17235;SDS011;8734;59.272;17.780;2023-09-18T12:23:27;1.63;;;0.60;;
17235;SDS011;8734;59.272;17.780;2023-09-18T12:25:57;2.87;;;0.50;;
17235;SDS011;8734;59.272;17.780;2023-09-18T12:28:27;1.53;;;0.40;;
17235;SDS011;8734;59.272;17.780;2023-09-18T12:30:56;0.77;;;0.53;;
17235;SDS011;8734;59.272;17.780;2023-09-18T12:33:25;1.33;;;0.43;;
17235;SDS011;8734;59.272;17.780;2023-09-18T12:35:54;4.07;;;0.70;;
17235;SDS011;8734;59.272;17.780;2023-09-18T12:38:23;5.93;;;0.70;;
17235;SDS011;8734;59.272;17.780;2023-09-18T12:40:55;0.60;;;0.40;;
17235;SDS011;8734;59.272;17.780;2023-09-18T12:43:35;0.73;;;0.40;;
17235;SDS011;8734;59.272;17.780;2023-09-18T12:46:06;1.70;;;0.80;;
17235;SDS011;8734;59.272;17.780;2023-09-18T12:48:36;1.80;;;0.70;;
17235;SDS011;8734;59.272;17.780;2023-09-18T12:51:05;1.27;;;0.60;;
17235;SDS011;8734;59.272;17.780;2023-09-18T12:53:34;3.30;;;0.70;;
17235;SDS011;8734;59.272;17.780;2023-09-18T12:56:07;5.07;;;0.80;;
17235;SDS011;8734;59.272;17.780;2023-09-18T12:58:37;6.73;;;0.60;;
17235;SDS011;8734;59.272;17.780;2023-09-18T13:01:25;7.07;;;0.87;;
17235;SDS011;8734;59.272;17.780;2023-09-18T13:03:54;1.00;;;0.53;;
17235;SDS011;8734;59.272;17.780;2023-09-18T13:06:23;4.20;;;0.80;;
17235;SDS011;8734;59.272;17.780;2023-09-18T13:08:51;2.40;;;0.60;;
17235;SDS011;8734;59.272;17.780;2023-09-18T13:11:22;6.33;;;0.80;;
17235;SDS011;8734;59.272;17.780;2023-09-18T13:13:56;2.83;;;0.70;;
17235;SDS011;8734;59.272;17.780;2023-09-18T13:16:26;3.90;;;0.70;;
17235;SDS011;8734;59.272;17.780;2023-09-18T13:18:54;3.30;;;0.70;;
17235;SDS011;8734;59.272;17.780;2023-09-18T13:21:25;7.07;;;1.17;;
17235;SDS011;8734;59.272;17.780;2023-09-18T13:23:53;3.83;;;0.70;;
17235;SDS011;8734;59.272;17.780;2023-09-18T13:26:23;2.20;;;0.70;;
17235;SDS011;8734;59.272;17.780;2023-09-18T13:28:51;2.27;;;0.97;;
17235;SDS011;8734;59.272;17.780;2023-09-18T13:31:20;3.80;;;0.80;;
17235;SDS011;8734;59.272;17.780;2023-09-18T13:33:48;1.53;;;0.70;;
17235;SDS011;8734;59.272;17.780;2023-09-18T13:36:18;1.23;;;0.43;;
17235;SDS011;8734;59.272;17.780;2023-09-18T13:38:47;4.70;;;0.80;;
17235;SDS011;8734;59.272;17.780;2023-09-18T13:41:15;6.73;;;0.93;;
17235;SDS011;8734;59.272;17.780;2023-09-18T13:43:44;4.57;;;0.80;;
17235;SDS011;8734;59.272;17.780;2023-09-18T13:46:14;1.37;;;0.67;;
17235;SDS011;8734;59.272;17.780;2023-09-18T13:48:42;4.73;;;0.60;;
17235;SDS011;8734;59.272;17.780;2023-09-18T13:51:11;4.47;;;0.53;;
17235;SDS011;8734;59.272;17.780;2023-09-18T13:53:39;1.40;;;0.50;;
17235;SDS011;8734;59.272;17.780;2023-09-18T13:56:09;4.03;;;1.17;;
17235;SDS011;8734;59.272;17.780;2023-09-18T13:58:38;5.97;;;0.90;;
17235;SDS011;8734;59.272;17.780;2023-09-18T14:01:09;5.17;;;0.70;;
17235;SDS011;8734;59.272;17.780;2023-09-18T14:03:37;8.10;;;0.90;;
17235;SDS011;8734;59.272;17.780;2023-09-18T14:06:08;2.57;;;0.80;;
17235;SDS011;8734;59.272;17.780;2023-09-18T14:08:37;4.67;;;0.80;;
17235;SDS011;8734;59.272;17.780;2023-09-18T14:11:06;2.57;;;0.80;;
17235;SDS011;8734;59.272;17.780;2023-09-18T14:13:36;4.00;;;0.80;;
17235;SDS011;8734;59.272;17.780;2023-09-18T14:16:04;4.27;;;0.90;;
17235;SDS011;8734;59.272;17.780;2023-09-18T14:18:34;3.97;;;1.10;;
17235;SDS011;8734;59.272;17.780;2023-09-18T14:21:03;2.67;;;0.77;;
17235;SDS011;8734;59.272;17.780;2023-09-18T14:23:32;2.77;;;0.63;;
17235;SDS011;8734;59.272;17.780;2023-09-18T14:26:01;2.37;;;0.80;;
17235;SDS011;8734;59.272;17.780;2023-09-18T14:28:30;4.97;;;0.87;;
17235;SDS011;8734;59.272;17.780;2023-09-18T14:30:59;4.57;;;0.83;;
17235;SDS011;8734;59.272;17.780;2023-09-18T14:33:30;6.63;;;0.87;;
17235;SDS011;8734;59.272;17.780;2023-09-18T14:36:00;3.67;;;1.13;;
17235;SDS011;8734;59.272;17.780;2023-09-18T14:38:30;5.60;;;0.90;;
17235;SDS011;8734;59.272;17.780;2023-09-18T14:40:58;1.53;;;0.57;;
17235;SDS011;8734;59.272;17.780;2023-09-18T14:43:29;2.17;;;0.90;;
17235;SDS011;8734;59.272;17.780;2023-09-18T14:45:58;2.97;;;0.90;;
17235;SDS011;8734;59.272;17.780;2023-09-18T14:48:26;1.47;;;0.87;;
17235;SDS011;8734;59.272;17.780;2023-09-18T14:50:55;5.97;;;0.97;;
17235;SDS011;8734;59.272;17.780;2023-09-18T14:53:26;3.87;;;0.80;;
17235;SDS011;8734;59.272;17.780;2023-09-18T14:55:55;1.70;;;0.73;;
17235;SDS011;8734;59.272;17.780;2023-09-18T14:58:24;2.43;;;1.13;;
17235;SDS011;8734;59.272;17.780;2023-09-18T15:00:53;3.13;;;0.80;;
17235;SDS011;8734;59.272;17.780;2023-09-18T15:03:21;3.33;;;0.83;;
17235;SDS011;8734;59.272;17.780;2023-09-18T15:05:51;4.03;;;1.30;;
17235;SDS011;8734;59.272;17.780;2023-09-18T15:08:20;1.97;;;0.80;;
17235;SDS011;8734;59.272;17.780;2023-09-18T15:10:52;4.90;;;0.87;;